sensor_id;sensor_type;location;lat;lon;timestamp;temperature;humidity
21648;DHT22;10985;54.182;7.890;2023-05-07T00:00:17;9.80;99.90
21648;DHT22;10985;54.182;7.890;2023-05-07T00:02:44;9.80;99.90
21648;DHT22;10985;54.182;7.890;2023-05-07T00:05:10;9.80;99.90
21648;DHT22;10985;54.182;7.890;2023-05-07T00:07:36;9.80;99.90
21648;DHT22;10985;54.182;7.890;2023-05-07T00:10:02;9.80;99.90
21648;DHT22;10985;54.182;7.890;2023-05-07T00:12:28;9.80;99.90
21648;DHT22;10985;54.182;7.890;2023-05-07T00:14:56;9.80;99.90
21648;DHT22;10985;54.182;7.890;2023-05-07T00:17:22;9.80;99.90
21648;DHT22;10985;54.182;7.890;2023-05-07T00:19:48;9.80;99.90
21648;DHT22;10985;54.182;7.890;2023-05-07T00:22:14;9.80;99.90
21648;DHT22;10985;54.182;7.890;2023-05-07T00:24:39;9.80;99.90
21648;DHT22;10985;54.182;7.890;2023-05-07T00:27:05;9.80;99.90
21648;DHT22;10985;54.182;7.890;2023-05-07T00:29:30;9.80;99.90
21648;DHT22;10985;54.182;7.890;2023-05-07T00:31:56;9.90;99.90
21648;DHT22;10985;54.182;7.890;2023-05-07T00:34:21;9.90;99.90
21648;DHT22;10985;54.182;7.890;2023-05-07T00:36:47;9.80;99.90
21648;DHT22;10985;54.182;7.890;2023-05-07T00:39:13;9.90;99.90
21648;DHT22;10985;54.182;7.890;2023-05-07T00:41:38;9.90;99.90
21648;DHT22;10985;54.182;7.890;2023-05-07T00:44:04;9.90;99.90
21648;DHT22;10985;54.182;7.890;2023-05-07T00:46:30;9.90;99.90
21648;DHT22;10985;54.182;7.890;2023-05-07T00:48:56;9.90;99.90
21648;DHT22;10985;54.182;7.890;2023-05-07T00:51:24;9.80;99.90
21648;DHT22;10985;54.182;7.890;2023-05-07T00:53:50;9.80;99.90
21648;DHT22;10985;54.182;7.890;2023-05-07T00:56:16;9.80;99.90
21648;DHT22;10985;54.182;7.890;2023-05-07T00:58:41;9.90;99.90
21648;DHT22;10985;54.182;7.890;2023-05-07T01:01:07;9.90;99.90
21648;DHT22;10985;54.182;7.890;2023-05-07T01:03:33;9.80;99.90
21648;DHT22;10985;54.182;7.890;2023-05-07T01:05:59;9.80;99.90
21648;DHT22;10985;54.182;7.890;2023-05-07T01:08:26;9.80;99.90
21648;DHT22;10985;54.182;7.890;2023-05-07T01:10:54;9.80;99.90
21648;DHT22;10985;54.182;7.890;2023-05-07T01:13:20;9.80;99.90
21648;DHT22;10985;54.182;7.890;2023-05-07T01:15:46;9.80;99.90
21648;DHT22;10985;54.182;7.890;2023-05-07T01:18:11;9.80;99.90
21648;DHT22;10985;54.182;7.890;2023-05-07T01:20:37;9.80;99.90
21648;DHT22;10985;54.182;7.890;2023-05-07T01:23:03;9.80;99.90
21648;DHT22;10985;54.182;7.890;2023-05-07T01:25:29;9.80;99.90
21648;DHT22;10985;54.182;7.890;2023-05-07T01:27:55;9.80;99.90
21648;DHT22;10985;54.182;7.890;2023-05-07T01:30:21;9.80;99.90
21648;DHT22;10985;54.182;7.890;2023-05-07T01:32:58;9.80;99.90
21648;DHT22;10985;54.182;7.890;2023-05-07T01:35:30;9.80;99.90
21648;DHT22;10985;54.182;7.890;2023-05-07T01:37:57;9.80;99.90
21648;DHT22;10985;54.182;7.890;2023-05-07T01:40:24;9.80;99.90
21648;DHT22;10985;54.182;7.890;2023-05-07T01:42:50;9.80;99.90
21648;DHT22;10985;54.182;7.890;2023-05-07T01:45:16;9.80;99.90
21648;DHT22;10985;54.182;7.890;2023-05-07T01:47:42;9.80;99.90
21648;DHT22;10985;54.182;7.890;2023-05-07T01:52:39;9.80;99.90
21648;DHT22;10985;54.182;7.890;2023-05-07T01:55:06;9.80;99.90
21648;DHT22;10985;54.182;7.890;2023-05-07T01:57:32;9.80;99.90
21648;DHT22;10985;54.182;7.890;2023-05-07T01:59:57;9.80;99.90
21648;DHT22;10985;54.182;7.890;2023-05-07T02:02:23;9.80;99.90
21648;DHT22;10985;54.182;7.890;2023-05-07T02:04:48;9.80;99.90
21648;DHT22;10985;54.182;7.890;2023-05-07T02:07:13;9.80;99.90
21648;DHT22;10985;54.182;7.890;2023-05-07T02:09:39;9.80;99.90
21648;DHT22;10985;54.182;7.890;2023-05-07T02:12:05;9.80;99.90
21648;DHT22;10985;54.182;7.890;2023-05-07T02:14:30;9.80;99.90
21648;DHT22;10985;54.182;7.890;2023-05-07T02:16:56;9.80;99.90
21648;DHT22;10985;54.182;7.890;2023-05-07T02:19:21;9.80;99.90
21648;DHT22;10985;54.182;7.890;2023-05-07T02:21:47;9.80;99.90
21648;DHT22;10985;54.182;7.890;2023-05-07T02:24:13;9.80;99.90
21648;DHT22;10985;54.182;7.890;2023-05-07T02:26:40;9.80;99.90
21648;DHT22;10985;54.182;7.890;2023-05-07T02:29:06;9.80;99.90
21648;DHT22;10985;54.182;7.890;2023-05-07T02:31:31;9.70;99.90
21648;DHT22;10985;54.182;7.890;2023-05-07T02:33:59;9.70;99.90
21648;DHT22;10985;54.182;7.890;2023-05-07T02:36:24;9.70;99.90
21648;DHT22;10985;54.182;7.890;2023-05-07T02:38:50;9.70;99.90
21648;DHT22;10985;54.182;7.890;2023-05-07T02:41:16;9.70;99.90
21648;DHT22;10985;54.182;7.890;2023-05-07T02:43:41;9.70;99.90
21648;DHT22;10985;54.182;7.890;2023-05-07T02:46:08;9.70;99.90
21648;DHT22;10985;54.182;7.890;2023-05-07T02:48:34;9.70;99.90
21648;DHT22;10985;54.182;7.890;2023-05-07T02:51:00;9.70;99.90
21648;DHT22;10985;54.182;7.890;2023-05-07T02:53:26;9.70;99.90
21648;DHT22;10985;54.182;7.890;2023-05-07T02:55:56;9.60;99.90
21648;DHT22;10985;54.182;7.890;2023-05-07T02:58:22;9.60;99.90
21648;DHT22;10985;54.182;7.890;2023-05-07T03:00:48;9.60;99.90
21648;DHT22;10985;54.182;7.890;2023-05-07T03:03:14;9.60;99.90
21648;DHT22;10985;54.182;7.890;2023-05-07T03:05:39;9.60;99.90
21648;DHT22;10985;54.182;7.890;2023-05-07T03:08:05;9.60;99.90
21648;DHT22;10985;54.182;7.890;2023-05-07T03:10:31;9.60;99.90
21648;DHT22;10985;54.182;7.890;2023-05-07T03:12:56;9.60;99.90
21648;DHT22;10985;54.182;7.890;2023-05-07T03:15:22;9.60;99.90
21648;DHT22;10985;54.182;7.890;2023-05-07T03:17:48;9.60;99.90
21648;DHT22;10985;54.182;7.890;2023-05-07T03:20:13;9.60;99.90
21648;DHT22;10985;54.182;7.890;2023-05-07T03:22:39;9.60;99.90
21648;DHT22;10985;54.182;7.890;2023-05-07T03:25:07;9.50;99.90
21648;DHT22;10985;54.182;7.890;2023-05-07T03:27:32;9.50;99.90
21648;DHT22;10985;54.182;7.890;2023-05-07T03:29:58;9.50;99.90
21648;DHT22;10985;54.182;7.890;2023-05-07T03:32:23;9.50;99.90
21648;DHT22;10985;54.182;7.890;2023-05-07T03:34:49;9.50;99.90
21648;DHT22;10985;54.182;7.890;2023-05-07T03:37:14;9.50;99.90
21648;DHT22;10985;54.182;7.890;2023-05-07T03:39:40;9.50;99.90
21648;DHT22;10985;54.182;7.890;2023-05-07T03:42:06;9.50;99.90
21648;DHT22;10985;54.182;7.890;2023-05-07T03:44:31;9.50;99.90
21648;DHT22;10985;54.182;7.890;2023-05-07T03:46:57;9.50;99.90
21648;DHT22;10985;54.182;7.890;2023-05-07T03:49:22;9.40;99.90
21648;DHT22;10985;54.182;7.890;2023-05-07T03:51:48;9.50;99.90
21648;DHT22;10985;54.182;7.890;2023-05-07T03:54:13;9.40;99.90
21648;DHT22;10985;54.182;7.890;2023-05-07T03:56:39;9.40;99.90
21648;DHT22;10985;54.182;7.890;2023-05-07T03:59:05;9.40;99.90
21648;DHT22;10985;54.182;7.890;2023-05-07T04:01:30;9.40;99.90
21648;DHT22;10985;54.182;7.890;2023-05-07T04:03:56;9.40;99.90
21648;DHT22;10985;54.182;7.890;2023-05-07T04:06:22;9.40;99.90
21648;DHT22;10985;54.182;7.890;2023-05-07T04:08:47;9.40;99.90
21648;DHT22;10985;54.182;7.890;2023-05-07T04:11:13;9.40;99.90
21648;DHT22;10985;54.182;7.890;2023-05-07T04:13:38;9.40;99.90
21648;DHT22;10985;54.182;7.890;2023-05-07T04:16:05;9.40;99.90
21648;DHT22;10985;54.182;7.890;2023-05-07T04:18:31;9.40;99.90
21648;DHT22;10985;54.182;7.890;2023-05-07T04:20:56;9.40;99.90
21648;DHT22;10985;54.182;7.890;2023-05-07T04:23:22;9.40;99.90
21648;DHT22;10985;54.182;7.890;2023-05-07T04:25:47;9.40;99.90
21648;DHT22;10985;54.182;7.890;2023-05-07T04:28:13;9.40;99.90
21648;DHT22;10985;54.182;7.890;2023-05-07T04:30:39;9.40;99.90
21648;DHT22;10985;54.182;7.890;2023-05-07T04:33:05;9.40;99.90
21648;DHT22;10985;54.182;7.890;2023-05-07T04:35:32;9.40;99.90
21648;DHT22;10985;54.182;7.890;2023-05-07T04:37:57;9.40;99.90
21648;DHT22;10985;54.182;7.890;2023-05-07T04:40:23;9.50;99.90
21648;DHT22;10985;54.182;7.890;2023-05-07T04:42:48;9.50;99.90
21648;DHT22;10985;54.182;7.890;2023-05-07T04:45:14;9.50;99.90
21648;DHT22;10985;54.182;7.890;2023-05-07T04:47:40;9.50;99.90
21648;DHT22;10985;54.182;7.890;2023-05-07T04:50:07;9.50;99.90
21648;DHT22;10985;54.182;7.890;2023-05-07T04:52:33;9.50;99.90
21648;DHT22;10985;54.182;7.890;2023-05-07T04:55:00;9.50;99.90
21648;DHT22;10985;54.182;7.890;2023-05-07T04:57:26;9.50;99.90
21648;DHT22;10985;54.182;7.890;2023-05-07T04:59:52;9.50;99.90
21648;DHT22;10985;54.182;7.890;2023-05-07T05:02:17;9.50;99.90
21648;DHT22;10985;54.182;7.890;2023-05-07T05:04:43;9.50;99.90
21648;DHT22;10985;54.182;7.890;2023-05-07T05:07:08;9.50;99.90
21648;DHT22;10985;54.182;7.890;2023-05-07T05:09:34;9.50;99.90
21648;DHT22;10985;54.182;7.890;2023-05-07T05:12:00;9.60;99.90
21648;DHT22;10985;54.182;7.890;2023-05-07T05:14:25;9.60;99.90
21648;DHT22;10985;54.182;7.890;2023-05-07T05:16:51;9.60;99.90
21648;DHT22;10985;54.182;7.890;2023-05-07T05:19:16;9.60;99.90
21648;DHT22;10985;54.182;7.890;2023-05-07T05:21:42;9.60;99.90
21648;DHT22;10985;54.182;7.890;2023-05-07T05:24:07;9.60;99.90
21648;DHT22;10985;54.182;7.890;2023-05-07T05:26:33;9.60;99.90
21648;DHT22;10985;54.182;7.890;2023-05-07T05:28:59;9.60;99.90
21648;DHT22;10985;54.182;7.890;2023-05-07T05:31:24;9.60;99.90
21648;DHT22;10985;54.182;7.890;2023-05-07T05:33:50;9.60;99.90
21648;DHT22;10985;54.182;7.890;2023-05-07T05:36:15;9.60;99.90
21648;DHT22;10985;54.182;7.890;2023-05-07T05:38:41;9.70;99.90
21648;DHT22;10985;54.182;7.890;2023-05-07T05:41:06;9.70;99.90
21648;DHT22;10985;54.182;7.890;2023-05-07T05:43:32;9.60;99.90
21648;DHT22;10985;54.182;7.890;2023-05-07T05:45:57;9.60;99.90
21648;DHT22;10985;54.182;7.890;2023-05-07T05:48:24;9.70;99.90
21648;DHT22;10985;54.182;7.890;2023-05-07T05:50:49;9.60;99.90
21648;DHT22;10985;54.182;7.890;2023-05-07T05:53:15;9.60;99.90
21648;DHT22;10985;54.182;7.890;2023-05-07T05:55:41;9.60;99.90
21648;DHT22;10985;54.182;7.890;2023-05-07T05:58:07;9.70;99.90
21648;DHT22;10985;54.182;7.890;2023-05-07T06:00:33;9.70;99.90
21648;DHT22;10985;54.182;7.890;2023-05-07T06:02:58;9.60;99.90
21648;DHT22;10985;54.182;7.890;2023-05-07T06:05:24;9.70;99.90
21648;DHT22;10985;54.182;7.890;2023-05-07T06:07:49;9.70;99.90
21648;DHT22;10985;54.182;7.890;2023-05-07T06:10:15;9.70;99.90
21648;DHT22;10985;54.182;7.890;2023-05-07T06:12:40;9.70;99.90
21648;DHT22;10985;54.182;7.890;2023-05-07T06:15:06;9.80;99.90
21648;DHT22;10985;54.182;7.890;2023-05-07T06:17:32;9.80;99.90
21648;DHT22;10985;54.182;7.890;2023-05-07T06:19:57;9.80;99.90
21648;DHT22;10985;54.182;7.890;2023-05-07T06:22:23;9.80;99.90
21648;DHT22;10985;54.182;7.890;2023-05-07T06:24:48;9.80;99.90
21648;DHT22;10985;54.182;7.890;2023-05-07T06:27:14;9.80;99.90
21648;DHT22;10985;54.182;7.890;2023-05-07T06:29:39;9.80;99.90
21648;DHT22;10985;54.182;7.890;2023-05-07T06:32:13;9.80;99.90
21648;DHT22;10985;54.182;7.890;2023-05-07T06:34:39;9.90;99.90
21648;DHT22;10985;54.182;7.890;2023-05-07T06:37:06;9.80;99.90
21648;DHT22;10985;54.182;7.890;2023-05-07T06:39:32;9.90;99.90
21648;DHT22;10985;54.182;7.890;2023-05-07T06:41:57;9.90;99.90
21648;DHT22;10985;54.182;7.890;2023-05-07T06:44:23;9.90;99.90
21648;DHT22;10985;54.182;7.890;2023-05-07T06:46:49;9.90;99.90
21648;DHT22;10985;54.182;7.890;2023-05-07T06:49:14;9.90;99.90
21648;DHT22;10985;54.182;7.890;2023-05-07T06:51:40;9.90;99.90
21648;DHT22;10985;54.182;7.890;2023-05-07T06:54:06;10.00;99.90
21648;DHT22;10985;54.182;7.890;2023-05-07T06:56:32;10.00;99.90
21648;DHT22;10985;54.182;7.890;2023-05-07T06:58:57;9.90;99.90
21648;DHT22;10985;54.182;7.890;2023-05-07T07:01:23;9.90;99.90
21648;DHT22;10985;54.182;7.890;2023-05-07T07:03:48;9.90;99.90
21648;DHT22;10985;54.182;7.890;2023-05-07T07:06:14;9.90;99.90
21648;DHT22;10985;54.182;7.890;2023-05-07T07:08:40;9.90;99.90
21648;DHT22;10985;54.182;7.890;2023-05-07T07:11:06;9.90;99.90
21648;DHT22;10985;54.182;7.890;2023-05-07T07:13:31;9.90;99.90
21648;DHT22;10985;54.182;7.890;2023-05-07T07:15:57;9.90;99.90
21648;DHT22;10985;54.182;7.890;2023-05-07T07:18:22;9.90;99.90
21648;DHT22;10985;54.182;7.890;2023-05-07T07:20:48;9.90;99.90
21648;DHT22;10985;54.182;7.890;2023-05-07T07:23:14;9.90;99.90
21648;DHT22;10985;54.182;7.890;2023-05-07T07:25:39;9.90;99.90
21648;DHT22;10985;54.182;7.890;2023-05-07T07:28:05;9.90;99.90
21648;DHT22;10985;54.182;7.890;2023-05-07T07:30:31;10.00;99.90
21648;DHT22;10985;54.182;7.890;2023-05-07T07:32:57;10.00;99.90
21648;DHT22;10985;54.182;7.890;2023-05-07T07:35:29;10.00;99.90
21648;DHT22;10985;54.182;7.890;2023-05-07T07:37:55;10.00;99.90
21648;DHT22;10985;54.182;7.890;2023-05-07T07:40:21;10.10;99.90
21648;DHT22;10985;54.182;7.890;2023-05-07T07:42:46;10.10;99.90
21648;DHT22;10985;54.182;7.890;2023-05-07T07:45:12;10.10;99.90
21648;DHT22;10985;54.182;7.890;2023-05-07T07:47:38;10.20;99.90
21648;DHT22;10985;54.182;7.890;2023-05-07T07:50:04;10.20;99.90
21648;DHT22;10985;54.182;7.890;2023-05-07T07:52:31;10.20;99.90
21648;DHT22;10985;54.182;7.890;2023-05-07T07:54:56;10.30;99.90
21648;DHT22;10985;54.182;7.890;2023-05-07T07:57:21;10.30;99.90
21648;DHT22;10985;54.182;7.890;2023-05-07T07:59:47;10.40;99.90
21648;DHT22;10985;54.182;7.890;2023-05-07T08:02:12;10.40;99.90
21648;DHT22;10985;54.182;7.890;2023-05-07T08:04:38;10.50;99.90
21648;DHT22;10985;54.182;7.890;2023-05-07T08:07:03;10.50;99.90
21648;DHT22;10985;54.182;7.890;2023-05-07T08:09:29;10.60;99.90
21648;DHT22;10985;54.182;7.890;2023-05-07T08:11:54;10.70;99.90
21648;DHT22;10985;54.182;7.890;2023-05-07T08:14:20;10.70;99.90
21648;DHT22;10985;54.182;7.890;2023-05-07T08:16:46;10.80;99.90
21648;DHT22;10985;54.182;7.890;2023-05-07T08:19:11;10.80;99.90
21648;DHT22;10985;54.182;7.890;2023-05-07T08:21:40;10.90;99.90
21648;DHT22;10985;54.182;7.890;2023-05-07T08:24:06;10.90;99.90
21648;DHT22;10985;54.182;7.890;2023-05-07T08:26:31;10.90;99.90
21648;DHT22;10985;54.182;7.890;2023-05-07T08:28:57;11.00;99.90
21648;DHT22;10985;54.182;7.890;2023-05-07T08:31:22;11.00;99.90
21648;DHT22;10985;54.182;7.890;2023-05-07T08:33:48;11.00;99.90
21648;DHT22;10985;54.182;7.890;2023-05-07T08:36:13;11.10;99.90
21648;DHT22;10985;54.182;7.890;2023-05-07T08:38:39;11.10;99.90
21648;DHT22;10985;54.182;7.890;2023-05-07T08:41:06;11.10;99.90
21648;DHT22;10985;54.182;7.890;2023-05-07T08:43:33;11.20;99.90
21648;DHT22;10985;54.182;7.890;2023-05-07T08:46:01;11.30;99.90
21648;DHT22;10985;54.182;7.890;2023-05-07T08:48:29;11.30;99.90
21648;DHT22;10985;54.182;7.890;2023-05-07T08:50:57;11.40;99.90
21648;DHT22;10985;54.182;7.890;2023-05-07T08:53:23;11.50;99.90
21648;DHT22;10985;54.182;7.890;2023-05-07T08:55:49;11.60;99.90
21648;DHT22;10985;54.182;7.890;2023-05-07T08:58:14;11.70;99.90
21648;DHT22;10985;54.182;7.890;2023-05-07T09:00:40;11.80;99.90
21648;DHT22;10985;54.182;7.890;2023-05-07T09:03:06;11.90;99.90
21648;DHT22;10985;54.182;7.890;2023-05-07T09:05:32;12.00;99.90
21648;DHT22;10985;54.182;7.890;2023-05-07T09:08:02;12.10;99.90
21648;DHT22;10985;54.182;7.890;2023-05-07T09:10:29;12.10;99.90
21648;DHT22;10985;54.182;7.890;2023-05-07T09:12:54;12.20;99.90
21648;DHT22;10985;54.182;7.890;2023-05-07T09:15:20;12.20;99.90
21648;DHT22;10985;54.182;7.890;2023-05-07T09:17:46;12.20;99.90
21648;DHT22;10985;54.182;7.890;2023-05-07T09:20:11;12.20;99.90
21648;DHT22;10985;54.182;7.890;2023-05-07T09:22:37;12.30;99.90
21648;DHT22;10985;54.182;7.890;2023-05-07T09:25:04;12.20;99.90
21648;DHT22;10985;54.182;7.890;2023-05-07T09:27:30;12.20;99.90
21648;DHT22;10985;54.182;7.890;2023-05-07T09:29:56;12.30;99.90
21648;DHT22;10985;54.182;7.890;2023-05-07T09:32:22;12.30;99.90
21648;DHT22;10985;54.182;7.890;2023-05-07T09:34:47;12.40;99.90
21648;DHT22;10985;54.182;7.890;2023-05-07T09:37:13;12.50;99.90
21648;DHT22;10985;54.182;7.890;2023-05-07T09:39:43;12.60;99.90
21648;DHT22;10985;54.182;7.890;2023-05-07T09:42:10;12.60;99.90
21648;DHT22;10985;54.182;7.890;2023-05-07T09:44:37;12.70;99.90
21648;DHT22;10985;54.182;7.890;2023-05-07T09:47:05;12.70;99.90
21648;DHT22;10985;54.182;7.890;2023-05-07T09:49:34;12.80;99.90
21648;DHT22;10985;54.182;7.890;2023-05-07T09:52:01;12.80;99.90
21648;DHT22;10985;54.182;7.890;2023-05-07T09:54:27;12.80;99.90
21648;DHT22;10985;54.182;7.890;2023-05-07T09:56:56;12.80;99.90
21648;DHT22;10985;54.182;7.890;2023-05-07T09:59:22;12.80;99.90
21648;DHT22;10985;54.182;7.890;2023-05-07T10:01:48;12.80;99.90
21648;DHT22;10985;54.182;7.890;2023-05-07T10:04:14;12.80;99.90
21648;DHT22;10985;54.182;7.890;2023-05-07T10:06:40;12.80;99.90
21648;DHT22;10985;54.182;7.890;2023-05-07T10:09:07;12.90;99.90
21648;DHT22;10985;54.182;7.890;2023-05-07T10:11:33;12.90;99.90
21648;DHT22;10985;54.182;7.890;2023-05-07T10:14:00;12.90;99.90
21648;DHT22;10985;54.182;7.890;2023-05-07T10:16:31;12.90;99.90
21648;DHT22;10985;54.182;7.890;2023-05-07T10:18:58;13.00;99.90
21648;DHT22;10985;54.182;7.890;2023-05-07T10:21:24;13.00;99.90
21648;DHT22;10985;54.182;7.890;2023-05-07T10:26:35;13.10;99.90
21648;DHT22;10985;54.182;7.890;2023-05-07T10:29:06;13.20;99.90
21648;DHT22;10985;54.182;7.890;2023-05-07T10:31:59;13.30;99.90
21648;DHT22;10985;54.182;7.890;2023-05-07T10:34:34;13.40;99.90
21648;DHT22;10985;54.182;7.890;2023-05-07T10:37:01;13.50;99.90
21648;DHT22;10985;54.182;7.890;2023-05-07T10:39:27;13.60;99.90
21648;DHT22;10985;54.182;7.890;2023-05-07T10:41:53;13.70;99.90
21648;DHT22;10985;54.182;7.890;2023-05-07T10:44:26;13.90;99.90
21648;DHT22;10985;54.182;7.890;2023-05-07T10:47:06;13.90;99.90
21648;DHT22;10985;54.182;7.890;2023-05-07T10:52:23;14.10;99.90
21648;DHT22;10985;54.182;7.890;2023-05-07T10:57:50;14.10;99.90
21648;DHT22;10985;54.182;7.890;2023-05-07T11:05:30;14.20;99.90
21648;DHT22;10985;54.182;7.890;2023-05-07T11:07:57;14.20;99.90
21648;DHT22;10985;54.182;7.890;2023-05-07T11:10:23;14.10;99.90
21648;DHT22;10985;54.182;7.890;2023-05-07T11:13:08;14.10;99.90
21648;DHT22;10985;54.182;7.890;2023-05-07T11:15:39;14.10;99.90
21648;DHT22;10985;54.182;7.890;2023-05-07T11:18:07;14.10;99.90
21648;DHT22;10985;54.182;7.890;2023-05-07T11:26:00;14.40;99.90
21648;DHT22;10985;54.182;7.890;2023-05-07T11:28:28;14.50;99.90
21648;DHT22;10985;54.182;7.890;2023-05-07T11:30:54;14.60;99.90
21648;DHT22;10985;54.182;7.890;2023-05-07T11:33:20;14.70;99.90
21648;DHT22;10985;54.182;7.890;2023-05-07T11:35:45;14.70;99.90
21648;DHT22;10985;54.182;7.890;2023-05-07T11:38:12;14.70;99.90
21648;DHT22;10985;54.182;7.890;2023-05-07T11:40:54;14.70;99.90
21648;DHT22;10985;54.182;7.890;2023-05-07T11:43:20;14.70;99.90
21648;DHT22;10985;54.182;7.890;2023-05-07T11:45:47;14.70;99.90
21648;DHT22;10985;54.182;7.890;2023-05-07T11:48:13;14.80;99.90
21648;DHT22;10985;54.182;7.890;2023-05-07T11:50:53;14.80;99.90
21648;DHT22;10985;54.182;7.890;2023-05-07T11:53:20;14.90;99.90
21648;DHT22;10985;54.182;7.890;2023-05-07T11:55:46;15.00;99.90
21648;DHT22;10985;54.182;7.890;2023-05-07T11:58:15;15.00;99.90
21648;DHT22;10985;54.182;7.890;2023-05-07T12:00:52;15.10;99.90
21648;DHT22;10985;54.182;7.890;2023-05-07T12:03:18;15.30;99.90
21648;DHT22;10985;54.182;7.890;2023-05-07T12:05:47;15.50;99.90
21648;DHT22;10985;54.182;7.890;2023-05-07T12:08:18;15.90;99.90
21648;DHT22;10985;54.182;7.890;2023-05-07T12:10:44;16.20;99.90
21648;DHT22;10985;54.182;7.890;2023-05-07T12:13:17;16.60;99.90
21648;DHT22;10985;54.182;7.890;2023-05-07T12:15:43;16.90;99.90
21648;DHT22;10985;54.182;7.890;2023-05-07T12:18:09;17.40;99.90
21648;DHT22;10985;54.182;7.890;2023-05-07T12:20:36;17.70;99.90
21648;DHT22;10985;54.182;7.890;2023-05-07T12:23:02;18.00;99.90
21648;DHT22;10985;54.182;7.890;2023-05-07T12:25:39;18.30;99.90
21648;DHT22;10985;54.182;7.890;2023-05-07T12:28:07;18.50;99.90
21648;DHT22;10985;54.182;7.890;2023-05-07T12:30:37;18.60;99.90
21648;DHT22;10985;54.182;7.890;2023-05-07T12:33:03;18.80;99.90
21648;DHT22;10985;54.182;7.890;2023-05-07T12:35:32;19.10;99.90
21648;DHT22;10985;54.182;7.890;2023-05-07T12:38:01;19.40;99.90
21648;DHT22;10985;54.182;7.890;2023-05-07T12:43:02;20.10;99.90
21648;DHT22;10985;54.182;7.890;2023-05-07T12:45:27;20.40;99.90
21648;DHT22;10985;54.182;7.890;2023-05-07T12:47:53;20.50;99.90
21648;DHT22;10985;54.182;7.890;2023-05-07T12:50:20;20.60;99.90
21648;DHT22;10985;54.182;7.890;2023-05-07T12:52:47;20.50;99.90
21648;DHT22;10985;54.182;7.890;2023-05-07T12:55:16;20.30;99.90
21648;DHT22;10985;54.182;7.890;2023-05-07T12:57:43;20.20;99.90
21648;DHT22;10985;54.182;7.890;2023-05-07T13:00:11;20.20;99.90
21648;DHT22;10985;54.182;7.890;2023-05-07T13:02:41;19.90;99.90
21648;DHT22;10985;54.182;7.890;2023-05-07T13:05:07;19.80;99.90
21648;DHT22;10985;54.182;7.890;2023-05-07T13:07:33;19.70;99.90
21648;DHT22;10985;54.182;7.890;2023-05-07T13:09:58;19.50;99.90
21648;DHT22;10985;54.182;7.890;2023-05-07T13:12:24;19.30;99.90
21648;DHT22;10985;54.182;7.890;2023-05-07T13:14:50;19.20;99.90
21648;DHT22;10985;54.182;7.890;2023-05-07T13:17:15;18.90;99.90
21648;DHT22;10985;54.182;7.890;2023-05-07T13:19:41;18.80;99.90
21648;DHT22;10985;54.182;7.890;2023-05-07T13:22:06;18.70;99.90
21648;DHT22;10985;54.182;7.890;2023-05-07T13:24:32;18.40;99.90
21648;DHT22;10985;54.182;7.890;2023-05-07T13:26:57;18.30;99.90
21648;DHT22;10985;54.182;7.890;2023-05-07T13:29:23;18.20;99.90
21648;DHT22;10985;54.182;7.890;2023-05-07T13:31:56;18.00;99.90
21648;DHT22;10985;54.182;7.890;2023-05-07T13:34:21;17.80;99.90
21648;DHT22;10985;54.182;7.890;2023-05-07T13:36:47;17.50;99.90
21648;DHT22;10985;54.182;7.890;2023-05-07T13:39:12;17.30;99.90
21648;DHT22;10985;54.182;7.890;2023-05-07T13:41:38;17.10;99.90
21648;DHT22;10985;54.182;7.890;2023-05-07T13:44:03;16.80;99.90
21648;DHT22;10985;54.182;7.890;2023-05-07T13:46:29;16.80;99.90
21648;DHT22;10985;54.182;7.890;2023-05-07T13:48:55;16.70;99.90
21648;DHT22;10985;54.182;7.890;2023-05-07T13:51:21;16.50;99.90
21648;DHT22;10985;54.182;7.890;2023-05-07T13:53:47;16.40;99.90
21648;DHT22;10985;54.182;7.890;2023-05-07T13:56:13;16.30;99.90
21648;DHT22;10985;54.182;7.890;2023-05-07T13:58:39;16.20;99.90
21648;DHT22;10985;54.182;7.890;2023-05-07T14:01:05;16.10;99.90
21648;DHT22;10985;54.182;7.890;2023-05-07T14:03:30;16.00;99.90
21648;DHT22;10985;54.182;7.890;2023-05-07T14:05:58;15.90;99.90
21648;DHT22;10985;54.182;7.890;2023-05-07T14:08:25;15.80;99.90
21648;DHT22;10985;54.182;7.890;2023-05-07T14:10:51;15.70;99.90
21648;DHT22;10985;54.182;7.890;2023-05-07T14:13:16;15.50;99.90
21648;DHT22;10985;54.182;7.890;2023-05-07T14:15:42;15.40;99.90
21648;DHT22;10985;54.182;7.890;2023-05-07T14:18:12;15.40;99.90
21648;DHT22;10985;54.182;7.890;2023-05-07T14:20:37;15.30;99.90
21648;DHT22;10985;54.182;7.890;2023-05-07T14:23:03;15.20;99.90
21648;DHT22;10985;54.182;7.890;2023-05-07T14:25:29;15.10;99.90
21648;DHT22;10985;54.182;7.890;2023-05-07T14:27:54;15.00;99.90
21648;DHT22;10985;54.182;7.890;2023-05-07T14:30:20;14.90;99.90
21648;DHT22;10985;54.182;7.890;2023-05-07T14:32:47;14.70;99.90
21648;DHT22;10985;54.182;7.890;2023-05-07T14:35:13;14.70;99.90
21648;DHT22;10985;54.182;7.890;2023-05-07T14:37:38;14.70;99.90
21648;DHT22;10985;54.182;7.890;2023-05-07T14:40:04;14.60;99.90
21648;DHT22;10985;54.182;7.890;2023-05-07T14:42:30;14.50;99.90
21648;DHT22;10985;54.182;7.890;2023-05-07T14:44:55;14.50;99.90
21648;DHT22;10985;54.182;7.890;2023-05-07T14:47:21;14.40;99.90
21648;DHT22;10985;54.182;7.890;2023-05-07T14:49:46;14.40;99.90
21648;DHT22;10985;54.182;7.890;2023-05-07T14:52:12;14.30;99.90
21648;DHT22;10985;54.182;7.890;2023-05-07T14:54:37;14.30;99.90
21648;DHT22;10985;54.182;7.890;2023-05-07T14:57:05;14.20;99.90
21648;DHT22;10985;54.182;7.890;2023-05-07T14:59:30;14.10;99.90
21648;DHT22;10985;54.182;7.890;2023-05-07T15:01:57;14.00;99.90
21648;DHT22;10985;54.182;7.890;2023-05-07T15:04:24;14.00;99.90
21648;DHT22;10985;54.182;7.890;2023-05-07T15:06:49;14.00;99.90
21648;DHT22;10985;54.182;7.890;2023-05-07T15:09:15;14.00;99.90
21648;DHT22;10985;54.182;7.890;2023-05-07T15:11:40;13.90;99.90
21648;DHT22;10985;54.182;7.890;2023-05-07T15:14:06;13.90;99.90
21648;DHT22;10985;54.182;7.890;2023-05-07T15:16:31;13.90;99.90
21648;DHT22;10985;54.182;7.890;2023-05-07T15:18:58;13.90;99.90
21648;DHT22;10985;54.182;7.890;2023-05-07T15:21:23;13.80;99.90
21648;DHT22;10985;54.182;7.890;2023-05-07T15:23:49;13.80;99.90
21648;DHT22;10985;54.182;7.890;2023-05-07T15:26:14;13.80;99.90
21648;DHT22;10985;54.182;7.890;2023-05-07T15:28:40;13.80;99.90
21648;DHT22;10985;54.182;7.890;2023-05-07T15:31:06;13.80;99.90
21648;DHT22;10985;54.182;7.890;2023-05-07T15:33:32;13.70;99.90
21648;DHT22;10985;54.182;7.890;2023-05-07T15:35:58;13.70;99.90
21648;DHT22;10985;54.182;7.890;2023-05-07T15:38:25;13.70;99.90
21648;DHT22;10985;54.182;7.890;2023-05-07T15:40:51;13.70;99.90
21648;DHT22;10985;54.182;7.890;2023-05-07T15:43:16;13.70;99.90
21648;DHT22;10985;54.182;7.890;2023-05-07T15:45:43;13.70;99.90
21648;DHT22;10985;54.182;7.890;2023-05-07T15:48:09;13.60;99.90
21648;DHT22;10985;54.182;7.890;2023-05-07T15:50:36;13.60;99.90
21648;DHT22;10985;54.182;7.890;2023-05-07T15:53:02;13.60;99.90
21648;DHT22;10985;54.182;7.890;2023-05-07T15:55:28;13.50;99.90